createdAt,value
2023-03-10T00:00:12.678Z,69.32
2023-03-10T00:02:39.342Z,69.07
2023-03-10T00:05:06.315Z,69.69
2023-03-10T00:07:32.773Z,69.68
2023-03-10T00:09:59.207Z,70.65
2023-03-10T00:12:27.933Z,70.34
2023-03-10T00:14:55.393Z,70.07
2023-03-10T00:17:22.245Z,69.80
2023-03-10T00:19:48.686Z,69.60
2023-03-10T00:22:15.155Z,69.87
2023-03-10T00:24:41.595Z,70.18
2023-03-10T00:27:08.076Z,70.22
2023-03-10T00:29:34.571Z,70.52
2023-03-10T00:32:01.250Z,71.28
2023-03-10T00:34:27.726Z,72.17
2023-03-10T00:36:54.203Z,72.72
2023-03-10T00:39:20.653Z,73.64
2023-03-10T00:41:48.498Z,72.20
2023-03-10T00:44:16.224Z,73.05
2023-03-10T00:46:42.813Z,73.22
2023-03-10T00:49:10.932Z,73.47
2023-03-10T00:51:37.375Z,74.11
2023-03-10T00:54:03.967Z,72.52
2023-03-10T00:56:30.946Z,72.31
2023-03-10T00:59:00.523Z,72.19
2023-03-10T01:01:29.358Z,73.50
2023-03-10T01:03:57.645Z,73.42
2023-03-10T01:06:24.996Z,71.99
2023-03-10T01:08:51.601Z,73.35
2023-03-10T01:11:21.614Z,72.79
2023-03-10T01:13:48.346Z,73.49
2023-03-10T01:16:15.553Z,74.37
2023-03-10T01:18:43.742Z,74.17
2023-03-10T01:21:21.824Z,76.05
2023-03-10T01:23:48.605Z,74.00
2023-03-10T01:26:17.236Z,75.13
2023-03-10T01:28:46.124Z,73.73
2023-03-10T01:31:12.868Z,74.78
2023-03-10T01:33:41.194Z,73.94
2023-03-10T01:36:12.574Z,75.80
2023-03-10T01:38:39.625Z,74.29
2023-03-10T01:41:07.842Z,72.41
2023-03-10T01:43:39.478Z,73.25
2023-03-10T01:46:27.876Z,73.59
2023-03-10T01:49:01.199Z,74.78
2023-03-10T01:51:29.939Z,73.41
2023-03-10T01:53:56.410Z,73.38
2023-03-10T01:56:23.186Z,73.25
2023-03-10T01:58:49.869Z,73.47
2023-03-10T02:01:17.341Z,72.10
2023-03-10T02:04:09.577Z,73.72
2023-03-10T02:06:36.376Z,74.31
2023-03-10T02:09:04.608Z,73.66
2023-03-10T02:11:31.233Z,73.74
2023-03-10T02:13:57.702Z,75.33
2023-03-10T02:16:24.309Z,76.10
2023-03-10T02:18:51.016Z,75.02
2023-03-10T02:21:17.453Z,74.96
2023-03-10T02:24:00.871Z,74.66
2023-03-10T02:26:46.198Z,74.05
2023-03-10T02:29:18.897Z,73.36
2023-03-10T02:31:46.058Z,75.24
2023-03-10T02:34:13.582Z,74.76
2023-03-10T02:36:40.129Z,74.92
2023-03-10T02:39:07.145Z,74.02
2023-03-10T02:41:37.950Z,73.13
2023-03-10T02:44:12.122Z,75.19
2023-03-10T02:46:38.748Z,73.63
2023-03-10T02:49:07.541Z,72.87
2023-03-10T02:51:36.044Z,71.63
2023-03-10T02:54:03.019Z,73.63
2023-03-10T02:56:32.214Z,72.83
2023-03-10T02:58:59.272Z,74.03
2023-03-10T03:01:26.817Z,74.05
2023-03-10T03:03:54.628Z,72.82
2023-03-10T03:06:21.421Z,72.77
2023-03-10T03:08:48.977Z,73.28
2023-03-10T03:11:17.013Z,73.08
2023-03-10T03:13:43.536Z,74.03
2023-03-10T03:16:10.571Z,74.13
2023-03-10T03:18:37.545Z,74.04
2023-03-10T03:21:10.919Z,74.02
2023-03-10T03:23:38.221Z,74.23
2023-03-10T03:26:05.738Z,74.98
2023-03-10T03:28:32.275Z,75.96
2023-03-10T03:30:59.135Z,76.46
2023-03-10T03:33:25.585Z,75.16
2023-03-10T03:35:52.092Z,75.12
2023-03-10T03:38:18.657Z,73.92
2023-03-10T03:40:45.529Z,74.69
2023-03-10T03:43:12.880Z,76.05
2023-03-10T03:45:39.533Z,74.44
2023-03-10T03:48:06.099Z,74.32
2023-03-10T03:50:32.586Z,75.53
2023-03-10T03:52:59.070Z,75.15
2023-03-10T03:55:25.543Z,77.18
2023-03-10T03:57:52.251Z,76.25
2023-03-10T04:00:22.247Z,75.44
2023-03-10T04:02:48.959Z,75.90
2023-03-10T04:05:16.251Z,76.28
2023-03-10T04:07:43.028Z,77.25
2023-03-10T04:10:11.732Z,76.88
2023-03-10T04:12:38.452Z,76.13
2023-03-10T04:15:05.700Z,76.22
2023-03-10T04:17:32.142Z,75.72
2023-03-10T04:20:06.977Z,77.03
2023-03-10T04:22:35.509Z,77.45
2023-03-10T04:25:02.705Z,77.57
2023-03-10T04:27:29.199Z,77.13
2023-03-10T04:29:55.754Z,76.64
2023-03-10T04:32:22.254Z,77.46
2023-03-10T04:34:48.748Z,75.75
2023-03-10T04:37:15.552Z,77.39
2023-03-10T04:39:42.196Z,75.89
2023-03-10T04:42:08.969Z,76.13
2023-03-10T04:44:35.528Z,75.28
2023-03-10T04:47:02.368Z,75.42
2023-03-10T04:49:29.631Z,75.17
2023-03-10T04:51:56.147Z,73.92
2023-03-10T04:54:22.629Z,75.04
2023-03-10T04:56:49.101Z,75.35
2023-03-10T04:59:15.669Z,74.40
2023-03-10T05:01:42.229Z,73.87
2023-03-10T05:04:10.177Z,75.04
2023-03-10T05:06:36.718Z,74.68
2023-03-10T05:09:04.891Z,74.55
2023-03-10T05:11:32.162Z,74.88
2023-03-10T05:13:58.749Z,73.34
2023-03-10T05:16:25.509Z,72.28
2023-03-10T05:18:52.265Z,73.10
2023-03-10T05:21:18.805Z,73.16
2023-03-10T05:23:45.246Z,73.39
2023-03-10T05:26:12.008Z,72.99
2023-03-10T05:28:38.650Z,73.65
2023-03-10T05:31:14.247Z,74.10
2023-03-10T05:33:41.156Z,73.54
2023-03-10T05:36:09.103Z,73.88
2023-03-10T05:38:36.759Z,74.21
2023-03-10T05:41:06.895Z,71.79
2023-03-10T05:43:33.391Z,72.55
2023-03-10T05:46:00.051Z,72.84
2023-03-10T05:48:26.687Z,74.21
2023-03-10T05:51:00.667Z,73.71
2023-03-10T05:53:27.765Z,73.68
2023-03-10T05:55:56.343Z,72.13
2023-03-10T05:58:24.332Z,71.55
2023-03-10T06:00:51.392Z,72.79
2023-03-10T06:03:18.632Z,73.58
2023-03-10T06:05:45.579Z,74.05
2023-03-10T06:08:12.074Z,71.96
2023-03-10T06:10:38.610Z,73.59
2023-03-10T06:13:05.145Z,73.50
2023-03-10T06:15:31.667Z,73.15
2023-03-10T06:17:58.271Z,73.93
2023-03-10T06:20:24.879Z,74.55
2023-03-10T06:22:54.628Z,73.34
2023-03-10T06:25:21.418Z,72.02
2023-03-10T06:27:48.105Z,72.26
2023-03-10T06:30:15.696Z,72.44
2023-03-10T06:32:42.373Z,72.46
2023-03-10T06:35:12.552Z,73.65
2023-03-10T06:37:39.007Z,72.84
2023-03-10T06:40:08.102Z,73.41
2023-03-10T06:42:34.623Z,73.25
2023-03-10T06:45:01.291Z,73.14
2023-03-10T06:47:27.726Z,74.09
2023-03-10T06:49:54.833Z,73.23
2023-03-10T06:52:21.418Z,73.30
2023-03-10T06:54:47.909Z,73.87
2023-03-10T06:57:14.350Z,74.62
2023-03-10T06:59:40.868Z,73.42
2023-03-10T07:02:07.535Z,75.10
2023-03-10T07:04:34.070Z,75.33
2023-03-10T07:07:00.563Z,74.56
2023-03-10T07:09:27.012Z,73.91
2023-03-10T07:11:53.483Z,74.26
2023-03-10T07:14:19.964Z,73.24
2023-03-10T07:16:46.726Z,72.40
2023-03-10T07:19:13.709Z,73.61
2023-03-10T07:21:40.316Z,74.52
2023-03-10T07:24:06.948Z,72.74
2023-03-10T07:26:33.578Z,73.65
2023-03-10T07:29:02.419Z,74.35
2023-03-10T07:31:29.205Z,73.10
2023-03-10T07:33:55.727Z,73.66
2023-03-10T07:36:22.538Z,72.25
2023-03-10T07:38:49.041Z,73.85
2023-03-10T07:41:17.952Z,72.56
2023-03-10T07:43:44.420Z,74.27
2023-03-10T07:46:12.978Z,73.34
2023-03-10T07:48:39.578Z,73.34
2023-03-10T07:51:06.301Z,73.32
2023-03-10T07:53:33.205Z,72.48
2023-03-10T07:55:59.683Z,71.72
2023-03-10T07:58:26.227Z,70.30
2023-03-10T08:00:57.111Z,73.10
2023-03-10T08:03:25.317Z,72.71
2023-03-10T08:05:52.143Z,73.01
2023-03-10T08:08:19.166Z,73.33
2023-03-10T08:10:45.855Z,72.42
2023-03-10T08:13:12.629Z,72.56
2023-03-10T08:15:40.145Z,71.71
2023-03-10T08:18:07.779Z,71.92
2023-03-10T08:20:37.879Z,72.86
2023-03-10T08:23:04.885Z,69.88
2023-03-10T08:25:31.394Z,70.44
2023-03-10T08:27:58.023Z,72.60
2023-03-10T08:30:24.655Z,71.62
2023-03-10T08:32:51.237Z,74.17
2023-03-10T08:35:18.212Z,72.78
2023-03-10T08:37:44.746Z,71.37
2023-03-10T08:40:13.828Z,70.46
2023-03-10T08:42:40.532Z,70.55
2023-03-10T08:45:08.836Z,71.64
2023-03-10T08:47:35.641Z,71.58
2023-03-10T08:50:02.285Z,71.82
2023-03-10T08:52:28.758Z,71.24
2023-03-10T08:54:55.234Z,71.35
2023-03-10T08:57:22.156Z,70.13
2023-03-10T08:59:48.656Z,70.94
2023-03-10T09:02:15.821Z,70.78
2023-03-10T09:04:42.670Z,71.77
2023-03-10T09:07:09.877Z,71.21
2023-03-10T09:09:36.600Z,71.37
2023-03-10T09:12:03.923Z,69.82
2023-03-10T09:14:30.427Z,69.74
2023-03-10T09:16:57.140Z,72.52
2023-03-10T09:19:25.312Z,70.01
2023-03-10T09:21:53.035Z,70.27
2023-03-10T09:24:19.996Z,69.86
2023-03-10T09:26:46.667Z,68.89
2023-03-10T09:29:14.185Z,69.20
2023-03-10T09:31:41.274Z,69.21
2023-03-10T09:34:08.414Z,70.10
2023-03-10T09:36:39.649Z,68.58
2023-03-10T09:39:06.235Z,70.08
2023-03-10T09:42:01.155Z,70.28
2023-03-10T09:44:47.234Z,69.59
2023-03-10T09:48:05.003Z,68.84
2023-03-10T09:50:43.984Z,69.09
2023-03-10T09:53:31.888Z,66.82
2023-03-10T09:55:58.675Z,67.31
2023-03-10T09:58:41.310Z,66.31
2023-03-10T10:01:16.019Z,66.82
2023-03-10T10:03:54.396Z,67.54
2023-03-10T10:06:28.047Z,67.13
2023-03-10T10:09:13.855Z,65.47
2023-03-10T10:11:40.339Z,68.18
2023-03-10T10:14:28.532Z,66.57
2023-03-10T10:17:47.340Z,67.29
2023-03-10T10:20:25.860Z,66.10
2023-03-10T10:22:52.373Z,66.34
2023-03-10T10:25:24.337Z,65.60
2023-03-10T10:27:53.543Z,66.73
2023-03-10T10:30:31.016Z,66.49
2023-03-10T10:32:58.429Z,67.36
2023-03-10T10:35:27.318Z,67.26
2023-03-10T10:38:18.476Z,67.35
2023-03-10T10:40:58.625Z,68.06
2023-03-10T10:43:25.231Z,66.58
2023-03-10T10:46:04.579Z,66.81
2023-03-10T10:48:46.145Z,67.00
2023-03-10T10:51:18.688Z,65.79
2023-03-10T10:53:45.909Z,66.58
2023-03-10T10:56:20.084Z,67.48
2023-03-10T10:59:31.829Z,67.50
2023-03-10T11:02:22.758Z,66.21
2023-03-10T11:04:49.431Z,67.65
2023-03-10T11:07:34.004Z,66.06
2023-03-10T11:10:00.478Z,67.02
2023-03-10T11:12:31.347Z,64.07
2023-03-10T11:15:20.332Z,65.21
2023-03-10T11:17:51.296Z,64.63
2023-03-10T11:20:30.853Z,64.88
2023-03-10T11:22:57.275Z,65.44
2023-03-10T11:25:29.440Z,64.56
2023-03-10T11:28:20.869Z,63.36
2023-03-10T11:31:26.026Z,65.18
2023-03-10T11:33:59.420Z,64.45
2023-03-10T11:36:55.526Z,64.35
2023-03-10T11:39:32.813Z,65.78
2023-03-10T11:42:05.729Z,65.59
2023-03-10T11:44:41.751Z,66.13
2023-03-10T11:47:26.458Z,65.66
2023-03-10T11:50:02.463Z,65.08
2023-03-10T11:52:29.655Z,66.21
2023-03-10T11:55:01.905Z,66.12
2023-03-10T11:57:32.633Z,66.27
2023-03-10T12:00:05.738Z,65.79
2023-03-10T12:02:46.206Z,64.42
2023-03-10T12:05:22.909Z,65.37
2023-03-10T12:07:51.967Z,65.72
2023-03-10T12:10:21.246Z,66.09
2023-03-10T12:12:49.824Z,66.42
2023-03-10T12:15:36.947Z,65.26
2023-03-10T12:18:04.762Z,65.78
2023-03-10T12:20:33.118Z,64.43
2023-03-10T12:22:59.581Z,64.13
2023-03-10T12:25:29.296Z,61.80
2023-03-10T12:28:17.143Z,63.08
2023-03-10T12:30:46.880Z,62.40
2023-03-10T12:33:41.245Z,63.28
2023-03-10T12:36:32.655Z,61.52
2023-03-10T12:39:01.000Z,61.88
2023-03-10T12:41:27.418Z,61.94
2023-03-10T12:43:57.697Z,60.50
2023-03-10T12:46:40.685Z,61.78
2023-03-10T12:49:13.448Z,61.94
2023-03-10T12:51:44.688Z,61.70
2023-03-10T12:54:32.406Z,60.26
2023-03-10T12:57:10.127Z,62.20
2023-03-10T12:59:59.847Z,63.79
2023-03-10T13:02:49.098Z,62.49
2023-03-10T13:05:22.864Z,62.17
2023-03-10T13:07:52.322Z,62.35
2023-03-10T13:10:22.877Z,62.83
2023-03-10T13:12:51.578Z,62.15
2023-03-10T13:15:24.940Z,61.41
2023-03-10T13:17:52.335Z,61.24
2023-03-10T13:20:19.486Z,61.09
2023-03-10T13:22:57.070Z,59.08
2023-03-10T13:25:24.867Z,60.43
2023-03-10T13:27:52.552Z,62.06
2023-03-10T13:30:24.233Z,62.44
2023-03-10T13:33:02.057Z,62.55
2023-03-10T13:35:36.904Z,61.40
2023-03-10T13:38:11.892Z,62.40
2023-03-10T13:40:41.600Z,61.29
2023-03-10T13:43:36.974Z,61.73
2023-03-10T13:46:09.703Z,62.88
2023-03-10T13:48:36.819Z,61.35
2023-03-10T13:51:17.259Z,62.06
2023-03-10T13:53:44.459Z,61.74
2023-03-10T13:56:21.511Z,62.73
2023-03-10T13:58:49.185Z,62.77
2023-03-10T14:01:25.084Z,63.16
2023-03-10T14:04:05.974Z,61.49
2023-03-10T14:06:32.582Z,63.23
2023-03-10T14:09:31.611Z,62.77
2023-03-10T14:11:58.082Z,62.34
2023-03-10T14:14:31.711Z,62.10
2023-03-10T14:17:06.790Z,61.46
2023-03-10T14:19:47.751Z,61.25
2023-03-10T14:22:25.797Z,63.25
2023-03-10T14:24:52.332Z,64.62
2023-03-10T14:27:19.281Z,64.18
2023-03-10T14:29:50.936Z,63.13
2023-03-10T14:32:17.901Z,64.53
2023-03-10T14:34:44.808Z,64.10
2023-03-10T14:37:11.301Z,64.51
2023-03-10T14:39:37.816Z,64.24
2023-03-10T14:42:04.718Z,65.25
2023-03-10T14:44:31.919Z,64.65
2023-03-10T14:46:59.565Z,63.54
2023-03-10T14:49:27.304Z,64.88
2023-03-10T14:51:54.071Z,65.79
2023-03-10T14:54:23.835Z,65.73
2023-03-10T14:56:59.827Z,65.76
2023-03-10T14:59:28.281Z,65.08
2023-03-10T15:01:58.675Z,66.71
2023-03-10T15:04:26.004Z,67.41
2023-03-10T15:06:53.091Z,66.76
2023-03-10T15:09:19.946Z,66.91
2023-03-10T15:11:46.564Z,67.81
2023-03-10T15:14:18.858Z,67.20
2023-03-10T15:16:45.620Z,68.12
2023-03-10T15:19:18.672Z,66.29
2023-03-10T15:21:45.106Z,65.81
2023-03-10T15:24:11.590Z,66.35
2023-03-10T15:26:38.082Z,65.65
2023-03-10T15:29:04.861Z,65.71
2023-03-10T15:31:31.513Z,65.49
2023-03-10T15:33:58.048Z,65.61
2023-03-10T15:36:24.487Z,64.49
2023-03-10T15:38:52.840Z,65.46
2023-03-10T15:41:19.439Z,65.78
2023-03-10T15:43:45.937Z,65.12
2023-03-10T15:46:12.623Z,65.46
2023-03-10T15:48:39.499Z,64.41
2023-03-10T15:51:10.752Z,63.67
2023-03-10T15:53:37.406Z,64.96
2023-03-10T15:56:08.183Z,66.07
2023-03-10T15:58:35.168Z,65.33
2023-03-10T16:01:09.771Z,64.20
2023-03-10T16:03:38.339Z,66.55
2023-03-10T16:06:05.982Z,66.38
2023-03-10T16:08:37.289Z,65.31
2023-03-10T16:11:06.427Z,64.57
2023-03-10T16:13:39.518Z,65.47
2023-03-10T16:16:07.599Z,64.27
2023-03-10T16:18:34.498Z,66.51
2023-03-10T16:21:02.292Z,66.45
2023-03-10T16:23:31.132Z,65.91
2023-03-10T16:26:11.235Z,66.29
2023-03-10T16:28:40.498Z,66.21
2023-03-10T16:31:07.400Z,67.67
2023-03-10T16:33:34.305Z,67.46
2023-03-10T16:36:02.262Z,68.11
2023-03-10T16:38:29.927Z,68.62
2023-03-10T16:40:57.995Z,69.61
2023-03-10T16:43:27.964Z,68.18
2023-03-10T16:46:13.918Z,67.96
2023-03-10T16:48:43.489Z,67.12
2023-03-10T16:51:23.704Z,69.62
2023-03-10T16:53:50.782Z,69.41
2023-03-10T16:56:17.488Z,69.43
2023-03-10T16:58:45.331Z,68.32
2023-03-10T17:01:11.903Z,68.66
2023-03-10T17:03:41.492Z,69.00
2023-03-10T17:06:13.471Z,68.50
2023-03-10T17:08:40.734Z,66.81
2023-03-10T17:11:20.791Z,67.94
2023-03-10T17:13:49.564Z,68.11
2023-03-10T17:16:18.489Z,68.24
2023-03-10T17:18:44.975Z,67.83
2023-03-10T17:21:22.937Z,66.91
2023-03-10T17:23:50.489Z,67.21
2023-03-10T17:26:18.369Z,67.87
2023-03-10T17:28:46.879Z,67.80
2023-03-10T17:31:16.037Z,66.73
2023-03-10T17:33:43.589Z,67.55
2023-03-10T17:36:12.608Z,65.64
2023-03-10T17:38:39.815Z,67.43
2023-03-10T17:41:07.686Z,67.45
2023-03-10T17:43:35.001Z,68.04
2023-03-10T17:46:13.750Z,67.66
2023-03-10T17:48:40.302Z,69.29
2023-03-10T17:51:07.022Z,69.67
2023-03-10T17:53:33.591Z,69.69
2023-03-10T17:56:05.043Z,70.84
2023-03-10T17:58:32.316Z,71.58
2023-03-10T18:00:58.834Z,72.12
2023-03-10T18:03:25.436Z,73.37
2023-03-10T18:05:51.987Z,73.05
2023-03-10T18:08:18.744Z,73.52
2023-03-10T18:10:45.290Z,74.39
2023-03-10T18:13:11.926Z,74.76
2023-03-10T18:15:38.776Z,74.47
2023-03-10T18:18:05.360Z,74.17
2023-03-10T18:20:32.071Z,74.70
2023-03-10T18:22:59.226Z,75.02
2023-03-10T18:25:25.765Z,76.01
2023-03-10T18:27:52.208Z,75.77
2023-03-10T18:30:20.341Z,75.60
2023-03-10T18:32:46.907Z,76.98
2023-03-10T18:35:13.500Z,76.73
2023-03-10T18:37:39.987Z,77.54
2023-03-10T18:40:09.224Z,76.78
2023-03-10T18:42:35.774Z,76.79
2023-03-10T18:45:02.503Z,76.39
2023-03-10T18:47:28.980Z,75.50
2023-03-10T18:49:55.451Z,75.34
2023-03-10T18:52:22.045Z,75.85
2023-03-10T18:54:48.797Z,74.66
2023-03-10T18:57:15.740Z,74.43
2023-03-10T18:59:44.917Z,76.03
2023-03-10T19:02:15.003Z,75.22
2023-03-10T19:04:41.524Z,75.20
2023-03-10T19:07:08.542Z,75.15
2023-03-10T19:09:35.645Z,75.98
2023-03-10T19:12:02.198Z,76.01
2023-03-10T19:14:28.670Z,75.00
2023-03-10T19:16:55.217Z,76.94
2023-03-10T19:19:21.743Z,77.88
2023-03-10T19:21:48.585Z,76.47
2023-03-10T19:24:15.100Z,76.51
2023-03-10T19:26:43.419Z,77.38
2023-03-10T19:29:10.055Z,78.33
2023-03-10T19:31:36.593Z,77.94
2023-03-10T19:34:03.324Z,79.00
2023-03-10T19:36:29.904Z,79.48
2023-03-10T19:38:56.388Z,79.96
2023-03-10T19:41:23.589Z,78.83
2023-03-10T19:43:51.158Z,79.39
2023-03-10T19:46:18.479Z,79.58
2023-03-10T19:48:45.499Z,78.71
2023-03-10T19:51:21.470Z,79.23
2023-03-10T19:53:48.057Z,80.18
2023-03-10T19:56:17.472Z,82.60
2023-03-10T19:58:45.836Z,83.81
2023-03-10T20:01:14.318Z,82.52
2023-03-10T20:03:41.192Z,82.87
2023-03-10T20:06:07.990Z,81.41
2023-03-10T20:08:34.731Z,81.66
2023-03-10T20:11:02.328Z,80.56
2023-03-10T20:13:29.932Z,79.92
2023-03-10T20:15:57.313Z,81.31
2023-03-10T20:18:24.085Z,82.08
2023-03-10T20:20:51.028Z,82.40
2023-03-10T20:23:17.838Z,82.42
2023-03-10T20:25:45.586Z,82.79
2023-03-10T20:28:13.116Z,83.01
2023-03-10T20:30:41.129Z,83.86
2023-03-10T20:33:07.916Z,84.44
2023-03-10T20:35:34.752Z,82.32
2023-03-10T20:38:02.122Z,83.85
2023-03-10T20:40:28.686Z,82.42
2023-03-10T20:42:56.812Z,81.67
2023-03-10T20:45:23.642Z,84.65
2023-03-10T20:47:50.292Z,84.65
2023-03-10T20:50:17.491Z,83.82
2023-03-10T20:52:44.556Z,83.15
2023-03-10T20:55:20.973Z,83.55
2023-03-10T20:57:48.794Z,82.30
2023-03-10T21:00:16.763Z,82.80
2023-03-10T21:02:44.568Z,82.10
2023-03-10T21:05:11.929Z,83.97
2023-03-10T21:07:38.575Z,83.28
2023-03-10T21:10:07.395Z,82.88
2023-03-10T21:12:33.934Z,83.71
2023-03-10T21:15:00.667Z,81.51
2023-03-10T21:17:27.876Z,83.74
2023-03-10T21:19:54.834Z,84.40
2023-03-10T21:22:21.594Z,83.98
2023-03-10T21:24:49.153Z,82.49
2023-03-10T21:27:16.349Z,81.98
2023-03-10T21:29:43.096Z,83.45
2023-03-10T21:32:09.588Z,82.00
2023-03-10T21:34:36.032Z,82.06
2023-03-10T21:37:02.600Z,82.99
2023-03-10T21:39:29.152Z,84.60
2023-03-10T21:41:55.605Z,83.99
2023-03-10T21:44:22.112Z,81.11
2023-03-10T21:46:50.281Z,80.70
2023-03-10T21:49:17.183Z,82.08
2023-03-10T21:51:43.621Z,82.13
2023-03-10T21:54:10.378Z,82.90
2023-03-10T21:56:36.809Z,81.18
2023-03-10T21:59:03.308Z,82.72
2023-03-10T22:01:30.009Z,82.74
2023-03-10T22:03:56.729Z,81.94
2023-03-10T22:06:23.290Z,82.61
2023-03-10T22:08:49.808Z,83.65
2023-03-10T22:11:17.014Z,82.76
2023-03-10T22:13:43.575Z,83.33
2023-03-10T22:16:14.256Z,81.83
2023-03-10T22:18:40.753Z,82.04
2023-03-10T22:21:07.222Z,81.77
2023-03-10T22:23:33.726Z,82.58
2023-03-10T22:26:00.196Z,82.19
2023-03-10T22:28:26.700Z,83.24
2023-03-10T22:30:53.382Z,82.06
2023-03-10T22:33:19.934Z,83.20
2023-03-10T22:35:51.919Z,83.32
2023-03-10T22:38:20.352Z,82.83
2023-03-10T22:40:46.971Z,83.53
2023-03-10T22:43:13.848Z,83.10
2023-03-10T22:45:41.802Z,82.82
2023-03-10T22:48:08.513Z,84.02
2023-03-10T22:50:38.556Z,83.75
2023-03-10T22:53:07.679Z,84.49
2023-03-10T22:55:37.040Z,84.68
2023-03-10T22:58:05.324Z,84.74
2023-03-10T23:00:32.708Z,83.73
2023-03-10T23:02:59.601Z,84.48
2023-03-10T23:05:26.994Z,82.58
2023-03-10T23:07:54.050Z,83.95
2023-03-10T23:10:26.393Z,85.04
2023-03-10T23:12:53.791Z,83.83
2023-03-10T23:15:25.316Z,83.54
2023-03-10T23:17:55.883Z,83.45
2023-03-10T23:20:26.976Z,84.03
2023-03-10T23:22:54.273Z,83.77
2023-03-10T23:25:24.080Z,82.19
2023-03-10T23:27:50.561Z,83.93
2023-03-10T23:30:17.614Z,82.68
2023-03-10T23:32:45.685Z,83.51
2023-03-10T23:35:13.847Z,84.40
2023-03-10T23:37:40.364Z,83.81
2023-03-10T23:40:11.604Z,82.76
2023-03-10T23:42:38.731Z,83.20
2023-03-10T23:45:06.960Z,82.82
2023-03-10T23:47:34.719Z,81.54
2023-03-10T23:50:01.504Z,82.27
2023-03-10T23:52:28.071Z,84.11
2023-03-10T23:54:54.678Z,82.84
2023-03-10T23:57:21.121Z,83.30
2023-03-10T23:59:48.544Z,83.43
